createdAt,value
2022-08-26T00:01:45.220Z,9.85
2022-08-26T00:04:12.702Z,9.75
2022-08-26T00:06:42.532Z,9.52
2022-08-26T00:09:16.124Z,9.77
2022-08-26T00:11:44.874Z,10.32
2022-08-26T00:14:14.032Z,11.02
2022-08-26T00:16:47.507Z,11.27
2022-08-26T00:19:15.741Z,10.70
2022-08-26T00:21:42.464Z,10.18
2022-08-26T00:24:09.275Z,9.98
2022-08-26T00:26:36.384Z,10.40
2022-08-26T00:29:03.827Z,10.48
2022-08-26T00:31:32.097Z,9.32
2022-08-26T00:33:59.577Z,9.82
2022-08-26T00:36:29.843Z,9.07
2022-08-26T00:38:57.905Z,10.80
2022-08-26T00:41:24.728Z,9.75
2022-08-26T00:43:53.270Z,10.32
2022-08-26T00:46:28.947Z,10.02
2022-08-26T00:49:03.704Z,10.52
2022-08-26T00:51:31.307Z,10.30
2022-08-26T00:54:04.101Z,10.07
2022-08-26T00:56:38.315Z,10.55
2022-08-26T00:59:09.894Z,9.70
2022-08-26T01:01:38.682Z,10.23
2022-08-26T01:04:06.032Z,9.80
2022-08-26T01:06:32.868Z,11.73
2022-08-26T01:09:00.196Z,9.43
2022-08-26T01:11:27.837Z,10.15
2022-08-26T01:13:57.923Z,9.85
2022-08-26T01:16:25.844Z,10.95
2022-08-26T01:18:56.686Z,11.15
2022-08-26T01:21:32.371Z,11.85
2022-08-26T01:24:00.193Z,11.23
2022-08-26T01:26:34.045Z,10.70
2022-08-26T01:29:04.973Z,11.60
2022-08-26T01:31:37.886Z,11.65
2022-08-26T01:34:26.354Z,11.55
2022-08-26T01:36:58.803Z,12.02
2022-08-26T01:39:25.800Z,11.77
2022-08-26T01:41:57.088Z,12.45
2022-08-26T01:44:28.283Z,11.63
2022-08-26T01:47:00.078Z,13.77
2022-08-26T01:49:28.038Z,12.23
2022-08-26T01:51:59.458Z,12.68
2022-08-26T01:54:26.954Z,12.73
2022-08-26T01:56:54.427Z,11.50
2022-08-26T01:59:24.175Z,10.68
2022-08-26T02:01:52.744Z,11.45
2022-08-26T02:04:33.350Z,10.93
2022-08-26T02:07:04.375Z,11.73
2022-08-26T02:09:31.795Z,11.07
2022-08-26T02:12:05.934Z,10.50
2022-08-26T02:14:43.776Z,10.25
2022-08-26T02:17:11.292Z,10.10
2022-08-26T02:19:42.065Z,8.75
2022-08-26T02:22:16.301Z,11.10
2022-08-26T02:24:51.960Z,10.18
2022-08-26T02:27:25.382Z,9.60
2022-08-26T02:30:04.125Z,9.63
2022-08-26T02:32:32.206Z,9.65
2022-08-26T02:34:58.975Z,10.50
2022-08-26T02:37:29.977Z,9.18
2022-08-26T02:39:56.954Z,9.82
2022-08-26T02:42:23.963Z,9.80
2022-08-26T02:44:52.025Z,9.85
2022-08-26T02:47:18.813Z,10.45
2022-08-26T02:49:47.437Z,11.15
2022-08-26T02:52:14.852Z,10.93
2022-08-26T02:54:41.748Z,9.48
2022-08-26T02:57:08.715Z,9.50
2022-08-26T02:59:36.254Z,9.80
2022-08-26T03:02:04.010Z,10.18
2022-08-26T03:04:33.323Z,10.10
2022-08-26T03:07:00.436Z,9.30
2022-08-26T03:09:27.429Z,8.55
2022-08-26T03:11:55.572Z,8.50
2022-08-26T03:14:24.091Z,8.98
2022-08-26T03:16:54.092Z,9.25
2022-08-26T03:19:23.963Z,8.88
2022-08-26T03:21:52.805Z,10.13
2022-08-26T03:24:25.933Z,11.93
2022-08-26T03:26:53.212Z,10.57
2022-08-26T03:29:39.656Z,10.52
2022-08-26T03:32:06.947Z,11.00
2022-08-26T03:34:33.926Z,10.68
2022-08-26T03:37:01.076Z,9.68
2022-08-26T03:39:28.010Z,9.63
2022-08-26T03:41:58.996Z,10.40
2022-08-26T03:44:26.665Z,9.43
2022-08-26T03:46:54.625Z,8.43
2022-08-26T03:49:22.017Z,8.70
2022-08-26T03:51:48.798Z,8.18
2022-08-26T03:54:16.998Z,8.20
2022-08-26T03:56:43.829Z,8.55
2022-08-26T03:59:13.883Z,7.88
2022-08-26T04:01:40.816Z,8.90
2022-08-26T04:04:07.703Z,8.68
2022-08-26T04:06:39.928Z,9.07
2022-08-26T04:09:10.499Z,8.07
2022-08-26T04:11:39.520Z,7.72
2022-08-26T04:14:10.234Z,8.38
2022-08-26T04:16:37.392Z,8.82
2022-08-26T04:19:06.706Z,8.07
2022-08-26T04:21:34.506Z,7.80
2022-08-26T04:24:03.569Z,7.50
2022-08-26T04:26:39.538Z,8.65
2022-08-26T04:29:16.467Z,7.85
2022-08-26T04:31:43.398Z,7.38
2022-08-26T04:34:11.284Z,7.88
2022-08-26T04:36:42.106Z,7.07
2022-08-26T04:39:12.300Z,7.57
2022-08-26T04:41:39.759Z,7.00
2022-08-26T04:44:07.914Z,6.85
2022-08-26T04:46:35.421Z,8.23
2022-08-26T04:49:08.496Z,10.50
2022-08-26T04:51:36.523Z,7.82
2022-08-26T04:54:06.976Z,7.60
2022-08-26T04:56:37.744Z,8.00
2022-08-26T04:59:08.268Z,7.07
2022-08-26T05:01:50.077Z,7.82
2022-08-26T05:04:19.274Z,7.60
2022-08-26T05:06:50.085Z,7.25
2022-08-26T05:09:18.762Z,8.52
2022-08-26T05:11:48.632Z,8.23
2022-08-26T05:14:20.049Z,9.40
2022-08-26T05:16:47.774Z,9.05
2022-08-26T05:19:17.248Z,9.75
2022-08-26T05:24:14.348Z,9.85
2022-08-26T05:26:41.306Z,9.60
2022-08-26T05:29:08.170Z,9.60
2022-08-26T05:31:36.091Z,9.68
2022-08-26T05:34:04.787Z,8.82
2022-08-26T05:36:34.131Z,10.10
2022-08-26T05:39:03.502Z,9.10
2022-08-26T05:41:36.431Z,9.05
2022-08-26T05:44:07.329Z,10.05
2022-08-26T05:46:36.031Z,10.60
2022-08-26T05:49:04.600Z,8.95
2022-08-26T05:54:05.734Z,9.13
2022-08-26T05:56:33.093Z,8.15
2022-08-26T05:59:02.404Z,9.35
2022-08-26T06:01:31.459Z,8.70
2022-08-26T06:04:03.794Z,8.15
2022-08-26T06:06:33.632Z,7.68
2022-08-26T06:09:04.024Z,8.15
2022-08-26T06:11:32.661Z,7.72
2022-08-26T06:14:04.232Z,7.63
2022-08-26T06:16:34.872Z,8.18
2022-08-26T06:19:03.643Z,7.55
2022-08-26T06:21:40.240Z,7.68
2022-08-26T06:24:30.385Z,7.30
2022-08-26T06:27:05.280Z,7.78
2022-08-26T06:29:34.307Z,7.28
2022-08-26T06:32:04.039Z,6.70
2022-08-26T06:34:31.066Z,6.90
2022-08-26T06:37:02.438Z,6.38
2022-08-26T06:39:30.851Z,6.97
2022-08-26T06:41:59.138Z,6.00
2022-08-26T06:44:26.951Z,6.38
2022-08-26T06:46:54.012Z,5.75
2022-08-26T06:49:26.887Z,6.40
2022-08-26T06:51:55.526Z,5.63
2022-08-26T06:54:22.483Z,7.75
2022-08-26T06:56:49.666Z,6.97
2022-08-26T06:59:16.533Z,7.18
2022-08-26T07:01:45.293Z,7.30
2022-08-26T07:04:15.660Z,7.35
2022-08-26T07:06:47.193Z,7.28
2022-08-26T07:09:14.259Z,7.13
2022-08-26T07:11:41.633Z,7.07
2022-08-26T07:14:09.153Z,8.23
2022-08-26T07:16:36.136Z,6.60
2022-08-26T07:19:11.067Z,6.97
2022-08-26T07:21:41.837Z,7.68
2022-08-26T07:24:11.022Z,7.28
2022-08-26T07:26:39.045Z,7.30
2022-08-26T07:29:12.621Z,6.50
2022-08-26T07:34:11.031Z,7.03
2022-08-26T07:36:37.897Z,6.72
2022-08-26T07:39:05.604Z,6.28
2022-08-26T07:41:32.378Z,6.32
2022-08-26T07:43:59.499Z,7.05
2022-08-26T07:46:27.121Z,6.45
2022-08-26T07:48:57.923Z,6.32
2022-08-26T07:51:25.716Z,5.65
2022-08-26T07:53:53.658Z,5.93
2022-08-26T07:56:23.446Z,5.53
2022-08-26T07:58:58.253Z,5.88
2022-08-26T08:01:26.206Z,6.15
2022-08-26T08:03:54.346Z,5.35
2022-08-26T08:06:27.338Z,5.78
2022-08-26T08:08:54.918Z,5.20
2022-08-26T08:11:22.191Z,5.05
2022-08-26T08:13:56.596Z,5.03
2022-08-26T08:16:28.514Z,5.53
2022-08-26T08:18:59.246Z,5.60
2022-08-26T08:21:27.970Z,5.72
2022-08-26T08:23:57.243Z,5.95
2022-08-26T08:26:25.739Z,5.72
2022-08-26T08:28:57.123Z,5.60
2022-08-26T08:34:14.292Z,5.72
2022-08-26T08:36:41.058Z,5.53
2022-08-26T08:39:08.631Z,5.65
2022-08-26T08:41:55.906Z,6.30
2022-08-26T08:46:58.924Z,5.47
2022-08-26T08:49:29.225Z,5.30
2022-08-26T08:52:02.314Z,5.20
2022-08-26T08:54:32.243Z,5.80
2022-08-26T08:57:12.706Z,5.72
2022-08-26T08:59:53.849Z,5.55
2022-08-26T09:02:54.312Z,5.72
2022-08-26T09:05:25.704Z,5.43
2022-08-26T09:07:54.299Z,5.50
2022-08-26T09:10:24.817Z,5.75
2022-08-26T09:12:52.785Z,5.72
2022-08-26T09:15:28.582Z,5.63
2022-08-26T09:18:05.966Z,5.78
2022-08-26T09:20:56.165Z,5.53
2022-08-26T09:23:23.235Z,5.43
2022-08-26T09:26:00.150Z,5.60
2022-08-26T09:28:30.275Z,5.28
2022-08-26T09:31:11.460Z,4.70
2022-08-26T09:33:40.309Z,5.18
2022-08-26T09:36:22.361Z,5.78
2022-08-26T09:38:51.387Z,4.38
2022-08-26T09:41:33.268Z,4.60
2022-08-26T09:44:14.541Z,5.35
2022-08-26T09:47:06.655Z,5.10
2022-08-26T09:49:37.150Z,4.85
2022-08-26T09:52:14.894Z,4.50
2022-08-26T09:54:46.048Z,4.40
2022-08-26T09:57:27.797Z,4.45
2022-08-26T09:59:55.935Z,4.88
2022-08-26T10:02:32.125Z,4.40
2022-08-26T10:05:09.235Z,4.72
2022-08-26T10:07:41.533Z,4.50
2022-08-26T10:10:13.126Z,4.53
2022-08-26T10:12:49.576Z,4.50
2022-08-26T10:15:19.084Z,4.03
2022-08-26T10:18:20.723Z,4.53
2022-08-26T10:20:57.773Z,4.75
2022-08-26T10:23:27.661Z,4.43
2022-08-26T10:26:16.203Z,4.10
2022-08-26T10:28:51.206Z,4.50
2022-08-26T10:31:48.544Z,4.60
2022-08-26T10:34:21.220Z,5.30
2022-08-26T10:37:14.546Z,4.70
2022-08-26T10:39:58.672Z,4.47
2022-08-26T10:42:40.533Z,4.28
2022-08-26T10:45:15.324Z,4.60
2022-08-26T10:47:57.587Z,4.53
2022-08-26T10:50:30.844Z,3.95
2022-08-26T10:53:02.589Z,4.35
2022-08-26T10:55:40.945Z,4.43
2022-08-26T10:58:27.537Z,4.18
2022-08-26T11:01:43.404Z,4.82
2022-08-26T11:04:29.097Z,4.10
2022-08-26T11:07:33.060Z,4.00
2022-08-26T11:10:20.976Z,4.70
2022-08-26T11:13:03.866Z,3.97
2022-08-26T11:15:31.076Z,4.18
2022-08-26T11:18:01.259Z,4.30
2022-08-26T11:20:28.060Z,3.80
2022-08-26T11:22:56.465Z,4.35
2022-08-26T11:25:30.201Z,4.07
2022-08-26T11:28:07.238Z,4.13
2022-08-26T11:30:42.816Z,3.97
2022-08-26T11:33:11.863Z,4.30
2022-08-26T11:35:38.857Z,4.15
2022-08-26T11:38:18.597Z,3.92
2022-08-26T11:40:57.277Z,3.95
2022-08-26T11:43:29.837Z,4.20
2022-08-26T11:46:05.919Z,4.15
2022-08-26T11:48:37.284Z,4.00
2022-08-26T11:51:11.269Z,3.90
2022-08-26T11:53:41.214Z,4.00
2022-08-26T11:56:17.585Z,3.95
2022-08-26T11:58:47.043Z,3.75
2022-08-26T12:01:28.009Z,3.72
2022-08-26T12:03:59.959Z,4.20
2022-08-26T12:06:37.708Z,4.00
2022-08-26T12:09:20.463Z,3.67
2022-08-26T12:11:47.324Z,3.88
2022-08-26T12:14:24.411Z,3.90
2022-08-26T12:16:54.161Z,4.00
2022-08-26T12:19:27.726Z,3.35
2022-08-26T12:22:02.734Z,3.85
2022-08-26T12:24:30.203Z,3.83
2022-08-26T12:27:13.123Z,3.28
2022-08-26T12:29:40.088Z,3.47
2022-08-26T12:32:18.419Z,4.00
2022-08-26T12:34:49.164Z,4.22
2022-08-26T12:37:16.377Z,3.85
2022-08-26T12:39:46.104Z,4.05
2022-08-26T12:42:13.003Z,3.65
2022-08-26T12:44:53.854Z,3.88
2022-08-26T12:47:43.569Z,4.05
2022-08-26T12:50:19.394Z,4.20
2022-08-26T12:53:03.228Z,4.50
2022-08-26T12:55:33.135Z,4.07
2022-08-26T12:58:18.528Z,3.90
2022-08-26T13:01:04.854Z,3.60
2022-08-26T13:03:37.883Z,4.15
2022-08-26T13:06:22.882Z,4.80
2022-08-26T13:09:00.139Z,4.25
2022-08-26T13:11:31.814Z,3.63
2022-08-26T13:14:07.061Z,3.72
2022-08-26T13:16:35.450Z,4.00
2022-08-26T13:19:10.474Z,3.88
2022-08-26T13:21:48.014Z,3.63
2022-08-26T13:24:25.077Z,3.53
2022-08-26T13:26:52.142Z,3.72
2022-08-26T13:29:19.525Z,3.58
2022-08-26T13:31:48.054Z,3.88
2022-08-26T13:34:19.323Z,3.80
2022-08-26T13:36:50.986Z,4.20
2022-08-26T13:39:18.693Z,3.47
2022-08-26T13:41:46.340Z,3.13
2022-08-26T13:44:13.639Z,3.00
2022-08-26T13:46:40.847Z,3.47
2022-08-26T13:49:07.986Z,3.95
2022-08-26T13:51:35.307Z,3.80
2022-08-26T13:54:02.051Z,3.80
2022-08-26T13:56:30.046Z,3.47
2022-08-26T13:59:01.366Z,3.38
2022-08-26T14:01:30.957Z,3.50
2022-08-26T14:03:58.603Z,3.83
2022-08-26T14:06:25.732Z,3.10
2022-08-26T14:08:52.728Z,3.72
2022-08-26T14:11:19.745Z,3.72
2022-08-26T14:13:46.551Z,3.40
2022-08-26T14:16:23.731Z,3.17
2022-08-26T14:18:51.099Z,3.53
2022-08-26T14:21:18.653Z,3.50
2022-08-26T14:23:45.497Z,3.70
2022-08-26T14:26:28.769Z,3.58
2022-08-26T14:28:58.334Z,3.60
2022-08-26T14:31:27.218Z,4.30
2022-08-26T14:33:57.173Z,3.63
2022-08-26T14:36:32.494Z,3.40
2022-08-26T14:39:05.037Z,3.80
2022-08-26T14:41:33.664Z,3.15
2022-08-26T14:46:34.490Z,3.80
2022-08-26T14:49:03.591Z,3.78
2022-08-26T14:51:32.524Z,3.28
2022-08-26T14:54:14.543Z,3.72
2022-08-26T14:56:49.046Z,3.80
2022-08-26T14:59:20.448Z,4.32
2022-08-26T15:01:47.471Z,3.70
2022-08-26T15:04:15.235Z,3.50
2022-08-26T15:06:42.175Z,3.50
2022-08-26T15:09:09.204Z,3.67
2022-08-26T15:11:36.455Z,3.60
2022-08-26T15:14:03.384Z,3.30
2022-08-26T15:16:30.404Z,2.88
2022-08-26T15:18:57.941Z,3.53
2022-08-26T15:21:26.186Z,3.40
2022-08-26T15:23:54.777Z,3.60
2022-08-26T15:26:22.366Z,3.70
2022-08-26T15:28:49.897Z,2.95
2022-08-26T15:31:17.817Z,3.60
2022-08-26T15:33:45.828Z,2.90
2022-08-26T15:36:12.623Z,3.00
2022-08-26T15:38:42.574Z,3.20
2022-08-26T15:41:10.384Z,2.95
2022-08-26T15:43:38.269Z,3.00
2022-08-26T15:46:11.195Z,3.45
2022-08-26T15:48:38.723Z,3.20
2022-08-26T15:51:06.914Z,3.42
2022-08-26T15:53:34.945Z,3.25
2022-08-26T15:56:02.273Z,3.38
2022-08-26T15:58:29.882Z,3.92
2022-08-26T16:00:57.572Z,3.08
2022-08-26T16:03:24.871Z,2.83
2022-08-26T16:05:52.044Z,3.05
2022-08-26T16:08:19.203Z,3.40
2022-08-26T16:10:50.278Z,3.00
2022-08-26T16:13:20.089Z,3.40
2022-08-26T16:15:48.447Z,3.47
2022-08-26T16:18:16.382Z,3.95
2022-08-26T16:21:06.573Z,3.17
2022-08-26T16:23:39.525Z,3.30
2022-08-26T16:26:14.433Z,3.55
2022-08-26T16:28:41.284Z,3.30
2022-08-26T16:31:11.038Z,3.40
2022-08-26T16:33:38.428Z,3.60
2022-08-26T16:36:06.066Z,3.72
2022-08-26T16:38:35.638Z,3.40
2022-08-26T16:41:02.562Z,3.63
2022-08-26T16:43:29.367Z,3.53
2022-08-26T16:45:56.597Z,3.40
2022-08-26T16:48:23.888Z,3.83
2022-08-26T16:50:51.659Z,3.80
2022-08-26T16:53:19.167Z,3.80
2022-08-26T16:55:47.526Z,3.88
2022-08-26T16:58:15.130Z,4.00
2022-08-26T17:00:42.529Z,3.70
2022-08-26T17:03:10.244Z,3.70
2022-08-26T17:05:37.583Z,4.80
2022-08-26T17:08:05.231Z,4.10
2022-08-26T17:10:32.998Z,4.18
2022-08-26T17:13:00.440Z,4.03
2022-08-26T17:15:27.398Z,3.70
2022-08-26T17:17:55.163Z,4.15
2022-08-26T17:20:23.814Z,4.20
2022-08-26T17:22:52.748Z,4.18
2022-08-26T17:25:26.404Z,4.25
2022-08-26T17:27:53.299Z,4.28
2022-08-26T17:30:21.666Z,4.35
2022-08-26T17:32:48.925Z,5.13
2022-08-26T17:35:17.022Z,4.80
2022-08-26T17:37:44.045Z,4.72
2022-08-26T17:40:15.804Z,4.57
2022-08-26T17:42:42.650Z,4.82
2022-08-26T17:45:11.143Z,4.70
2022-08-26T17:47:40.993Z,4.87
2022-08-26T17:50:11.025Z,5.07
2022-08-26T17:52:38.103Z,4.82
2022-08-26T17:55:06.937Z,5.65
2022-08-26T17:57:37.358Z,5.32
2022-08-26T18:00:13.195Z,5.07
2022-08-26T18:02:40.994Z,4.90
2022-08-26T18:05:11.874Z,5.28
2022-08-26T18:07:44.037Z,5.90
2022-08-26T18:10:13.490Z,5.32
2022-08-26T18:12:41.092Z,5.65
2022-08-26T18:15:09.522Z,5.72
2022-08-26T18:17:36.958Z,5.25
2022-08-26T18:20:04.086Z,5.43
2022-08-26T18:22:30.833Z,5.20
2022-08-26T18:24:58.880Z,5.40
2022-08-26T18:27:26.696Z,5.43
2022-08-26T18:29:53.494Z,5.97
2022-08-26T18:32:20.244Z,6.30
2022-08-26T18:34:47.163Z,5.78
2022-08-26T18:37:14.168Z,6.05
2022-08-26T18:39:41.833Z,5.50
2022-08-26T18:42:09.170Z,5.82
2022-08-26T18:44:36.013Z,5.75
2022-08-26T18:47:02.843Z,5.63
2022-08-26T18:49:29.682Z,6.20
2022-08-26T18:51:57.136Z,6.03
2022-08-26T18:54:24.061Z,6.55
2022-08-26T18:56:51.575Z,5.90
2022-08-26T18:59:18.723Z,6.43
2022-08-26T19:01:47.679Z,6.43
2022-08-26T19:04:18.644Z,6.70
2022-08-26T19:06:50.701Z,6.93
2022-08-26T19:09:20.952Z,6.18
2022-08-26T19:11:49.756Z,6.93
2022-08-26T19:14:23.202Z,6.55
2022-08-26T19:16:53.095Z,6.32
2022-08-26T19:19:24.301Z,6.75
2022-08-26T19:21:53.045Z,7.05
2022-08-26T19:24:20.993Z,7.25
2022-08-26T19:26:57.593Z,5.97
2022-08-26T19:29:30.377Z,6.13
2022-08-26T19:32:00.941Z,7.53
2022-08-26T19:34:28.556Z,6.30
2022-08-26T19:36:57.497Z,6.40
2022-08-26T19:39:27.191Z,7.18
2022-08-26T19:41:54.326Z,6.28
2022-08-26T19:44:42.648Z,6.28
2022-08-26T19:47:11.738Z,6.63
2022-08-26T19:49:39.457Z,6.88
2022-08-26T19:52:07.235Z,6.50
2022-08-26T19:54:36.024Z,6.80
2022-08-26T19:57:03.991Z,6.72
2022-08-26T19:59:33.776Z,6.95
2022-08-26T20:02:01.959Z,7.47
2022-08-26T20:04:31.857Z,6.80
2022-08-26T20:07:00.869Z,6.95
2022-08-26T20:09:33.257Z,7.18
2022-08-26T20:12:01.564Z,7.38
2022-08-26T20:14:30.256Z,7.20
2022-08-26T20:16:57.630Z,7.00
2022-08-26T20:19:44.505Z,6.75
2022-08-26T20:22:17.434Z,7.15
2022-08-26T20:24:45.906Z,7.18
2022-08-26T20:27:13.654Z,6.68
2022-08-26T20:29:41.097Z,6.93
2022-08-26T20:32:08.221Z,7.22
2022-08-26T20:34:36.384Z,6.85
2022-08-26T20:37:04.400Z,6.60
2022-08-26T20:39:31.867Z,7.05
2022-08-26T20:42:02.062Z,6.55
2022-08-26T20:44:29.675Z,8.10
2022-08-26T20:46:56.878Z,7.35
2022-08-26T20:49:23.874Z,6.97
2022-08-26T20:51:51.795Z,7.50
2022-08-26T20:54:23.934Z,6.68
2022-08-26T20:56:56.611Z,7.75
2022-08-26T20:59:24.948Z,7.45
2022-08-26T21:01:51.983Z,6.68
2022-08-26T21:04:23.005Z,7.30
2022-08-26T21:06:52.790Z,6.63
2022-08-26T21:09:22.314Z,7.03
2022-08-26T21:11:49.424Z,5.82
2022-08-26T21:14:17.367Z,5.90
2022-08-26T21:16:45.943Z,5.88
2022-08-26T21:19:17.705Z,7.13
2022-08-26T21:21:45.943Z,6.43
2022-08-26T21:24:13.597Z,6.95
2022-08-26T21:26:40.524Z,7.00
2022-08-26T21:29:10.061Z,5.90
2022-08-26T21:34:05.785Z,5.90
2022-08-26T21:36:32.733Z,6.70
2022-08-26T21:39:00.381Z,6.35
2022-08-26T21:41:28.303Z,7.78
2022-08-26T21:43:59.353Z,8.63
2022-08-26T21:46:29.604Z,7.38
2022-08-26T21:48:59.392Z,7.18
2022-08-26T21:51:29.679Z,7.53
2022-08-26T21:53:57.944Z,8.05
2022-08-26T21:56:27.673Z,7.40
2022-08-26T21:58:56.377Z,7.47
2022-08-26T22:01:25.986Z,6.77
2022-08-26T22:06:25.447Z,6.60
2022-08-26T22:08:53.224Z,6.93
2022-08-26T22:11:21.082Z,7.30
2022-08-26T22:13:49.506Z,6.30
2022-08-26T22:16:16.917Z,6.90
2022-08-26T22:18:45.033Z,6.55
2022-08-26T22:21:19.055Z,7.15
2022-08-26T22:23:47.102Z,6.55
2022-08-26T22:26:20.517Z,6.40
2022-08-26T22:28:55.637Z,6.10
2022-08-26T22:31:28.210Z,6.00
2022-08-26T22:34:06.723Z,6.30
2022-08-26T22:36:33.564Z,5.63
2022-08-26T22:39:01.149Z,6.10
2022-08-26T22:41:28.014Z,6.20
2022-08-26T22:43:54.778Z,7.95
2022-08-26T22:46:25.103Z,7.15
2022-08-26T22:48:53.962Z,6.88
2022-08-26T22:51:21.616Z,7.20
2022-08-26T22:53:48.508Z,7.43
2022-08-26T22:56:18.413Z,7.32
2022-08-26T22:58:45.756Z,6.78
2022-08-26T23:03:31.349Z,7.28
2022-08-26T23:05:58.508Z,7.82
2022-08-26T23:08:25.977Z,7.90
2022-08-26T23:10:52.724Z,6.80
2022-08-26T23:13:20.107Z,7.50
2022-08-26T23:15:47.304Z,6.95
2022-08-26T23:18:15.327Z,7.93
2022-08-26T23:20:42.545Z,7.35
2022-08-26T23:23:09.687Z,7.20
2022-08-26T23:25:36.504Z,7.82
2022-08-26T23:28:04.202Z,7.22
2022-08-26T23:30:33.261Z,7.72
2022-08-26T23:33:01.092Z,7.65
2022-08-26T23:35:28.832Z,7.80
2022-08-26T23:37:57.867Z,7.15
2022-08-26T23:40:33.081Z,8.07
2022-08-26T23:43:03.668Z,7.63
2022-08-26T23:45:32.065Z,7.40
2022-08-26T23:47:59.437Z,6.38
2022-08-26T23:50:49.225Z,5.82
2022-08-26T23:53:22.430Z,6.82
2022-08-26T23:55:51.639Z,5.70
2022-08-26T23:58:20.453Z,5.47
